Time;durP1;ratioP1;P1;durP2;ratioP2;P2;SDS_P1;SDS_P2;PMS_P1;PMS_P2;Temp;Humidity;BMP_temperature;BMP_pressure;BME280_temperature;BME280_humidity;BME280_pressure;Samples;Min_cycle;Max_cycle;Signal;HPM_P1;HPM_P2
2021/09/06 00:00:40;;;;;;;7.95;5.90;;;;;;;20.35;63.47;100783.31;4991726;28;20434;-77
2021/09/06 00:03:05;;;;;;;8.85;6.93;;;;;;;20.31;63.48;100790.56;5002421;28;20399;-77
2021/09/06 00:05:30;;;;;;;7.30;6.33;;;;;;;20.26;63.53;100787.84;5009038;28;20463;-77
2021/09/06 00:07:56;;;;;;;8.67;6.80;;;;;;;20.21;63.61;100787.94;5003459;28;20446;-77
2021/09/06 00:10:35;;;;;;;9.27;6.90;;;;;;;20.19;63.58;100787.41;4991363;28;20501;-77
2021/09/06 00:13:02;;;;;;;8.70;6.35;;;;;;;20.14;63.73;100780.09;5007645;28;20884;-77
2021/09/06 00:15:28;;;;;;;6.82;6.13;;;;;;;20.12;64.09;100792.50;4991712;28;20402;-77
2021/09/06 00:17:53;;;;;;;7.35;6.53;;;;;;;20.07;64.08;100790.66;5000496;28;20729;-77
2021/09/06 00:20:20;;;;;;;7.07;6.37;;;;;;;20.05;64.09;100789.31;5009357;28;20882;-77
2021/09/06 00:22:46;;;;;;;8.00;6.22;;;;;;;20.03;64.22;100789.59;4995347;28;20450;-77
2021/09/06 00:25:11;;;;;;;8.40;5.93;;;;;;;20.01;64.12;100793.78;5007092;28;20427;-77
2021/09/06 00:27:37;;;;;;;7.77;7.00;;;;;;;19.99;64.19;100791.31;4999483;28;20393;-77
2021/09/06 00:30:03;;;;;;;7.43;6.73;;;;;;;19.95;64.02;100789.47;5005574;28;20517;-77
2021/09/06 00:32:28;;;;;;;6.35;5.85;;;;;;;19.91;64.18;100783.75;4995930;28;20437;-77
2021/09/06 00:34:53;;;;;;;7.63;6.60;;;;;;;19.89;64.02;100791.47;5021490;28;20437;-77
2021/09/06 00:37:18;;;;;;;7.03;6.30;;;;;;;19.88;63.80;100786.28;5006772;28;20398;-76
2021/09/06 00:39:44;;;;;;;7.37;6.77;;;;;;;19.85;63.98;100787.72;5005046;28;20408;-77
2021/09/06 00:42:09;;;;;;;7.47;6.60;;;;;;;19.80;63.95;100793.28;5000483;28;20412;-77
2021/09/06 00:44:34;;;;;;;7.17;6.40;;;;;;;19.78;63.92;100789.19;5010063;28;20445;-77
2021/09/06 00:47:00;;;;;;;8.03;6.67;;;;;;;19.77;64.17;100791.13;5001536;28;20408;-77
2021/09/06 00:49:26;;;;;;;9.48;6.90;;;;;;;19.75;64.22;100789.78;5011879;28;20495;-77
2021/09/06 00:51:52;;;;;;;8.43;7.07;;;;;;;19.71;64.53;100792.31;4994955;28;20885;-77
2021/09/06 00:54:17;;;;;;;8.67;7.20;;;;;;;19.65;64.40;100797.06;5001149;28;20448;-77
2021/09/06 00:56:43;;;;;;;8.03;7.00;;;;;;;19.59;64.66;100791.94;5008442;28;20387;-77
2021/09/06 00:59:08;;;;;;;8.47;6.80;;;;;;;19.59;64.75;100797.44;5004616;28;20397;-77
2021/09/06 01:01:34;;;;;;;8.07;6.90;;;;;;;19.57;64.60;100794.97;4993301;28;20964;-77
2021/09/06 01:03:59;;;;;;;7.80;7.10;;;;;;;19.53;64.51;100791.19;5008732;28;20408;-77
2021/09/06 01:06:24;;;;;;;8.10;6.70;;;;;;;19.51;64.65;100787.09;4994608;28;20926;-77
2021/09/06 01:08:49;;;;;;;10.10;7.70;;;;;;;19.48;64.83;100793.19;4994534;28;20425;-77
2021/09/06 01:11:16;;;;;;;9.38;7.50;;;;;;;19.47;64.85;100797.88;5003988;28;20957;-77
2021/09/06 01:13:41;;;;;;;10.02;7.40;;;;;;;19.43;64.81;100796.81;5008767;28;20389;-77
2021/09/06 01:16:06;;;;;;;13.50;8.57;;;;;;;19.37;64.92;100802.63;5011288;28;20411;-77
2021/09/06 01:18:32;;;;;;;10.80;8.10;;;;;;;19.30;64.92;100803.00;4992315;28;21006;-76
2021/09/06 01:20:58;;;;;;;12.98;8.10;;;;;;;19.26;65.05;100807.47;5004136;28;20463;-77
2021/09/06 01:23:23;;;;;;;8.90;7.60;;;;;;;19.20;65.17;100803.13;5002614;28;20423;-77
2021/09/06 01:25:49;;;;;;;8.23;7.27;;;;;;;19.17;65.24;100811.97;4995440;28;20838;-77
2021/09/06 01:28:15;;;;;;;17.77;8.05;;;;;;;19.14;65.36;100815.28;5012480;28;20484;-77
2021/09/06 01:30:40;;;;;;;9.60;8.03;;;;;;;19.13;65.48;100821.91;5003004;28;20475;-77
2021/09/06 01:33:06;;;;;;;9.70;8.70;;;;;;;19.07;65.38;100812.91;5010971;28;20415;-77
2021/09/06 01:35:31;;;;;;;11.37;8.13;;;;;;;19.01;65.57;100811.31;4994312;28;20401;-77
2021/09/06 01:37:56;;;;;;;11.15;7.90;;;;;;;18.98;65.92;100817.41;5009352;28;20727;-77
2021/09/06 01:40:23;;;;;;;8.33;7.53;;;;;;;18.95;65.78;100814.41;5001490;28;20818;-77
2021/09/06 01:42:49;;;;;;;10.35;8.48;;;;;;;18.95;66.16;100815.25;5007727;28;20494;-77
2021/09/06 01:45:14;;;;;;;9.03;7.40;;;;;;;18.96;66.24;100816.88;4999985;28;20454;-77
2021/09/06 01:47:40;;;;;;;8.82;7.18;;;;;;;18.95;65.90;100812.50;5001410;28;20508;-77
2021/09/06 01:50:06;;;;;;;7.67;6.87;;;;;;;18.95;65.95;100818.00;5004975;28;20424;-77
2021/09/06 01:52:31;;;;;;;8.00;6.60;;;;;;;18.95;65.72;100823.47;4995382;28;20410;-77
2021/09/06 01:54:57;;;;;;;8.10;7.30;;;;;;;18.94;65.66;100819.09;4992724;28;20445;-76
2021/09/06 01:57:22;;;;;;;8.70;6.80;;;;;;;18.93;65.81;100828.47;5010672;28;20403;-77
2021/09/06 01:59:47;;;;;;;8.93;6.43;;;;;;;18.91;65.90;100827.09;4993537;28;20403;-77
2021/09/06 02:02:13;;;;;;;7.07;6.38;;;;;;;18.89;65.94;100821.91;4993405;28;20434;-77
2021/09/06 02:04:38;;;;;;;8.20;6.90;;;;;;;18.89;66.08;100821.91;4995176;28;20409;-77
2021/09/06 02:07:03;;;;;;;7.87;6.93;;;;;;;18.88;66.03;100825.75;5003262;28;20476;-77
2021/09/06 02:09:28;;;;;;;8.20;7.50;;;;;;;18.87;66.32;100826.84;4998234;28;20434;-77
2021/09/06 02:11:54;;;;;;;8.93;7.23;;;;;;;18.87;66.74;100832.34;5004569;28;20406;-77
2021/09/06 02:14:19;;;;;;;8.10;6.97;;;;;;;18.85;66.74;100828.25;5003863;28;20416;-77
2021/09/06 02:16:44;;;;;;;7.87;7.03;;;;;;;18.87;66.45;100829.59;5026796;28;20440;-77
2021/09/06 02:19:09;;;;;;;8.37;7.33;;;;;;;18.88;66.70;100822.19;4993298;28;20407;-76
2021/09/06 02:21:35;;;;;;;7.37;6.67;;;;;;;18.86;66.75;100821.66;4993010;28;20540;-77
2021/09/06 02:24:02;;;;;;;7.93;6.80;;;;;;;18.85;66.61;100822.78;5001882;28;20462;-77
2021/09/06 02:26:28;;;;;;;8.57;7.47;;;;;;;18.83;66.62;100825.81;4997901;28;20403;-77
2021/09/06 02:28:54;;;;;;;8.00;7.20;;;;;;;18.83;66.67;100823.06;5025508;28;20405;-76
2021/09/06 02:31:19;;;;;;;7.93;7.17;;;;;;;18.84;66.84;100821.13;4995012;28;20554;-76
2021/09/06 02:33:44;;;;;;;8.23;7.17;;;;;;;18.81;66.64;100825.28;5003015;28;20417;-77
2021/09/06 02:36:10;;;;;;;8.68;7.68;;;;;;;18.78;66.78;100825.03;5013695;28;20494;-77
2021/09/06 02:38:35;;;;;;;7.37;6.67;;;;;;;18.77;66.77;100820.66;5010012;28;20428;-77
2021/09/06 02:41:00;;;;;;;8.47;7.60;;;;;;;18.77;66.74;100818.72;5007173;28;20448;-76
2021/09/06 02:43:26;;;;;;;7.45;6.78;;;;;;;18.73;66.91;100825.94;4996120;28;20436;-77
2021/09/06 02:45:51;;;;;;;8.23;6.87;;;;;;;18.70;67.02;100823.75;5005044;28;20432;-77
2021/09/06 02:48:16;;;;;;;9.00;7.07;;;;;;;18.69;66.64;100826.78;5008894;28;20392;-77
2021/09/06 02:50:41;;;;;;;8.53;7.50;;;;;;;18.65;66.73;100829.28;5003652;28;20807;-77
2021/09/06 02:53:07;;;;;;;8.13;7.32;;;;;;;18.63;66.96;100829.59;5009392;28;20930;-77
2021/09/06 02:55:32;;;;;;;7.97;7.20;;;;;;;18.64;66.92;100833.13;5002063;28;20387;-77
2021/09/06 02:57:57;;;;;;;8.03;7.23;;;;;;;18.63;66.98;100831.50;4995316;28;20452;-77
2021/09/06 03:00:25;;;;;;;8.20;7.40;;;;;;;18.61;66.94;100828.22;4992050;28;20501;-77
2021/09/06 03:02:50;;;;;;;7.40;6.75;;;;;;;18.58;66.83;100829.63;5002070;28;20414;-77
2021/09/06 03:05:15;;;;;;;7.90;7.03;;;;;;;18.55;66.57;100829.38;4999824;28;20397;-77
2021/09/06 03:07:41;;;;;;;7.38;6.68;;;;;;;18.53;66.86;100828.84;5011811;28;20961;-77
2021/09/06 03:10:07;;;;;;;8.30;7.43;;;;;;;18.51;66.79;100826.38;4992751;28;20427;-77
2021/09/06 03:12:32;;;;;;;8.07;7.35;;;;;;;18.49;66.83;100816.78;4992395;28;20857;-77
2021/09/06 03:14:57;;;;;;;8.33;7.47;;;;;;;18.42;67.10;100819.88;5002767;28;20421;-76
2021/09/06 03:17:22;;;;;;;8.10;7.30;;;;;;;18.43;66.76;100821.50;5005571;28;20706;-77
2021/09/06 03:19:48;;;;;;;8.20;7.07;;;;;;;18.43;67.02;100823.44;4994868;28;20871;-77
2021/09/06 03:22:14;;;;;;;8.80;7.70;;;;;;;18.42;66.90;100814.38;5007495;28;20420;-77
2021/09/06 03:24:39;;;;;;;7.47;6.75;;;;;;;18.41;67.13;100820.97;5003448;28;20387;-76
2021/09/06 03:27:04;;;;;;;7.90;7.20;;;;;;;18.39;66.94;100819.63;5004023;28;20493;-77
2021/09/06 03:29:29;;;;;;;10.63;7.80;;;;;;;18.39;66.88;100814.94;4995837;28;20785;-77
2021/09/06 03:31:55;;;;;;;7.23;6.57;;;;;;;18.33;67.37;100821.59;4991997;28;20497;-77
2021/09/06 03:34:20;;;;;;;11.43;7.37;;;;;;;18.28;67.06;100816.13;4991421;28;20785;-77
2021/09/06 03:36:45;;;;;;;8.27;7.47;;;;;;;18.28;67.15;100818.88;4993734;28;20505;-77
2021/09/06 03:39:10;;;;;;;8.97;6.93;;;;;;;18.28;67.33;100820.78;4990709;28;20402;-77
2021/09/06 03:41:36;;;;;;;8.68;6.82;;;;;;;18.29;67.27;100822.44;4994006;28;20407;-77
2021/09/06 03:44:01;;;;;;;9.93;7.63;;;;;;;18.27;67.13;100822.75;5002551;28;20410;-77
2021/09/06 03:46:27;;;;;;;8.23;7.43;;;;;;;18.26;67.20;100823.03;4992969;28;20465;-77
2021/09/06 03:48:52;;;;;;;9.17;7.57;;;;;;;18.25;67.06;100821.38;5008706;28;20416;-76
2021/09/06 03:51:17;;;;;;;9.83;7.33;;;;;;;18.24;67.00;100820.56;5000825;28;20477;-76
2021/09/06 03:53:43;;;;;;;9.00;7.43;;;;;;;18.22;66.71;100817.28;4996659;28;20480;-76
2021/09/06 03:56:09;;;;;;;7.80;7.00;;;;;;;18.21;67.01;100829.34;5006639;28;20410;-77
2021/09/06 03:58:34;;;;;;;7.67;6.97;;;;;;;18.18;67.24;100824.44;4999720;28;20885;-77
2021/09/06 04:00:59;;;;;;;8.47;7.73;;;;;;;18.16;67.40;100832.16;5006715;28;20398;-77
2021/09/06 04:03:24;;;;;;;8.20;7.37;;;;;;;18.12;67.24;100822.84;5006319;28;20391;-77
2021/09/06 04:05:50;;;;;;;8.63;7.37;;;;;;;18.10;67.18;100827.81;5007872;28;20411;-77
2021/09/06 04:08:15;;;;;;;9.03;7.77;;;;;;;18.08;67.24;100819.84;5000434;28;20410;-77
2021/09/06 04:10:40;;;;;;;8.27;7.40;;;;;;;18.08;67.25;100817.13;5006446;28;20421;-77
2021/09/06 04:13:06;;;;;;;7.90;7.30;;;;;;;18.05;67.16;100825.91;5011709;28;20403;-77
2021/09/06 04:15:31;;;;;;;8.27;7.50;;;;;;;18.02;67.47;100822.91;4998061;28;20419;-77
2021/09/06 04:17:56;;;;;;;8.43;7.70;;;;;;;17.98;67.66;100833.63;5003915;28;20405;-77
2021/09/06 04:20:21;;;;;;;10.63;7.73;;;;;;;17.92;67.81;100826.56;5006066;28;20406;-77
2021/09/06 04:22:48;;;;;;;8.88;7.97;;;;;;;17.91;67.58;100833.16;5011021;28;20408;-76
2021/09/06 04:25:13;;;;;;;8.63;7.63;;;;;;;17.89;67.84;100838.09;4995157;28;20449;-77
2021/09/06 04:27:40;;;;;;;7.90;7.13;;;;;;;17.90;67.69;100838.91;4995250;28;20743;-76
2021/09/06 04:30:06;;;;;;;8.48;7.68;;;;;;;17.90;67.63;100845.22;5008248;28;20560;-77
2021/09/06 04:32:31;;;;;;;14.75;7.45;;;;;;;17.89;67.90;100845.50;4998234;28;20471;-77
2021/09/06 04:34:56;;;;;;;8.93;7.33;;;;;;;17.86;67.97;100854.28;4993340;28;20454;-76
2021/09/06 04:37:22;;;;;;;8.57;7.75;;;;;;;17.84;67.78;100851.84;5002788;28;20388;-77
2021/09/06 04:39:47;;;;;;;8.30;7.47;;;;;;;17.84;67.96;100859.25;5012156;28;20393;-76
2021/09/06 04:42:13;;;;;;;8.07;7.28;;;;;;;17.82;68.35;100859.53;4999473;28;20402;-77
2021/09/06 04:44:38;;;;;;;8.53;7.57;;;;;;;17.84;68.03;100857.34;5000025;28;20421;-77
2021/09/06 04:47:04;;;;;;;8.32;7.53;;;;;;;17.84;67.96;100862.00;5007788;28;20390;-77
2021/09/06 04:49:29;;;;;;;10.13;8.53;;;;;;;17.83;68.16;100858.44;5004917;28;20416;-77
2021/09/06 04:51:54;;;;;;;10.13;8.10;;;;;;;17.79;67.91;100857.34;4994603;28;20418;-77
2021/09/06 04:54:20;;;;;;;9.03;8.13;;;;;;;17.72;68.26;100865.06;5010595;28;20480;-77
2021/09/06 04:56:46;;;;;;;9.98;8.07;;;;;;;17.69;68.67;100865.63;4996097;28;20525;-77
2021/09/06 04:59:11;;;;;;;10.37;9.13;;;;;;;17.72;68.60;100867.78;5004944;28;20948;-77
2021/09/06 05:01:37;;;;;;;11.65;8.48;;;;;;;17.73;68.49;100876.84;5003401;28;20871;-78
2021/09/06 05:04:03;;;;;;;12.70;8.63;;;;;;;17.75;68.41;100880.16;5011347;28;20418;-77
2021/09/06 05:06:28;;;;;;;16.45;9.13;;;;;;;17.76;68.46;100888.06;4997635;28;20412;-77
2021/09/06 05:08:53;;;;;;;15.88;8.88;;;;;;;17.78;68.59;100888.63;5004045;28;20775;-77
2021/09/06 05:11:19;;;;;;;14.03;9.17;;;;;;;17.79;68.61;100898.47;5001990;28;20394;-77
2021/09/06 05:13:44;;;;;;;18.03;9.53;;;;;;;17.79;68.72;100903.13;5001266;28;20415;-77
2021/09/06 05:16:09;;;;;;;12.75;9.15;;;;;;;17.78;68.54;100902.34;5011176;28;20401;-77
2021/09/06 05:18:35;;;;;;;12.73;8.83;;;;;;;17.81;68.52;100907.25;5001188;28;20408;-76
2021/09/06 05:21:01;;;;;;;21.23;9.57;;;;;;;17.82;68.51;100908.88;5003079;28;20892;-77
2021/09/06 05:23:26;;;;;;;11.67;9.23;;;;;;;17.77;68.61;100903.41;5008458;28;20483;-77
2021/09/06 05:25:53;;;;;;;11.20;9.53;;;;;;;17.74;68.50;100900.41;5015671;28;20450;-77
2021/09/06 05:28:18;;;;;;;14.18;10.65;;;;;;;17.73;68.66;100902.34;5007614;28;20853;-76
2021/09/06 05:30:43;;;;;;;17.97;9.90;;;;;;;17.76;68.90;100903.69;5000352;28;20409;-76
2021/09/06 05:33:09;;;;;;;16.47;10.10;;;;;;;17.80;68.64;100911.09;4993892;28;20593;-77
2021/09/06 05:35:34;;;;;;;13.23;10.57;;;;;;;17.82;68.67;100899.81;5002236;28;20483;-76
2021/09/06 05:37:59;;;;;;;12.87;9.93;;;;;;;17.83;68.84;100905.03;5009983;28;20741;-77
2021/09/06 05:40:25;;;;;;;18.10;10.77;;;;;;;17.87;68.44;100913.53;5004770;28;20410;-77
2021/09/06 05:42:50;;;;;;;15.47;9.47;;;;;;;17.91;68.31;100912.69;4992910;28;20456;-77
2021/09/06 05:45:15;;;;;;;14.93;10.03;;;;;;;17.93;68.61;100918.69;5000668;28;20411;-77
2021/09/06 05:47:40;;;;;;;13.50;8.73;;;;;;;17.95;68.12;100921.13;5012970;28;20484;-77
2021/09/06 05:50:06;;;;;;;16.55;9.52;;;;;;;17.94;68.07;100930.50;5012860;28;20460;-76
2021/09/06 05:52:31;;;;;;;13.90;9.93;;;;;;;17.99;67.99;100927.69;5001515;28;20409;-76
2021/09/06 05:54:57;;;;;;;12.30;9.40;;;;;;;18.01;67.86;100929.06;4994098;28;20461;-76
2021/09/06 05:57:23;;;;;;;12.77;10.47;;;;;;;18.04;67.67;100923.03;5011525;28;20403;-77
2021/09/06 05:59:49;;;;;;;13.18;8.55;;;;;;;18.03;67.79;100928.78;5007531;28;20408;-77
2021/09/06 06:02:14;;;;;;;13.33;9.40;;;;;;;18.05;68.02;100921.91;5007736;28;20741;-76
2021/09/06 06:04:39;;;;;;;11.73;8.90;;;;;;;18.10;68.14;100924.63;5010810;28;20431;-76
2021/09/06 06:07:05;;;;;;;14.60;8.97;;;;;;;18.13;67.51;100928.72;5002446;28;20412;-76
2021/09/06 06:09:30;;;;;;;14.43;8.73;;;;;;;18.11;67.36;100939.19;5005897;28;20422;-77
2021/09/06 06:11:55;;;;;;;11.20;9.87;;;;;;;18.07;67.43;100935.34;5007238;28;20488;-76
2021/09/06 06:14:20;;;;;;;12.13;8.80;;;;;;;18.06;67.66;100940.00;5001541;28;20423;-77
2021/09/06 06:16:46;;;;;;;12.73;8.60;;;;;;;18.11;67.62;100934.47;4996172;28;20490;-76
2021/09/06 06:19:11;;;;;;;12.63;8.90;;;;;;;18.15;67.74;100929.25;5003590;28;20505;-77
2021/09/06 06:21:36;;;;;;;10.53;8.17;;;;;;;18.19;67.68;100935.00;5005169;28;20475;-77
2021/09/06 06:24:02;;;;;;;10.30;7.87;;;;;;;18.22;67.89;100939.91;5000590;28;20912;-76
2021/09/06 06:26:28;;;;;;;12.18;8.27;;;;;;;18.27;67.50;100942.63;5008419;28;20454;-77
2021/09/06 06:28:54;;;;;;;10.93;8.30;;;;;;;18.32;66.67;100946.16;5004273;28;20425;-78
2021/09/06 06:31:19;;;;;;;11.18;8.25;;;;;;;18.36;66.76;100954.66;5001026;28;20560;-76
2021/09/06 06:33:45;;;;;;;10.10;7.97;;;;;;;18.39;66.88;100954.06;5000103;28;20870;-76
2021/09/06 06:36:10;;;;;;;12.60;8.50;;;;;;;18.42;66.90;100956.25;5004708;28;20428;-77
2021/09/06 06:38:36;;;;;;;10.55;7.78;;;;;;;18.39;66.18;100949.41;4997573;28;20534;-76
2021/09/06 06:41:02;;;;;;;13.50;8.30;;;;;;;18.38;66.08;100956.00;4992813;28;20406;-77
2021/09/06 06:43:28;;;;;;;10.15;8.35;;;;;;;18.42;66.10;100942.53;5002257;28;20431;-77
2021/09/06 06:45:54;;;;;;;11.45;8.27;;;;;;;18.46;66.01;100944.44;5002187;28;20895;-76
2021/09/06 06:48:19;;;;;;;10.93;7.97;;;;;;;18.50;66.46;100951.03;5022358;28;20403;-77
2021/09/06 06:50:44;;;;;;;10.47;7.93;;;;;;;18.53;66.28;100950.44;5004291;28;20766;-76
2021/09/06 06:53:10;;;;;;;12.20;7.17;;;;;;;18.56;65.53;100955.38;5011922;28;20409;-77
2021/09/06 06:55:36;;;;;;;10.13;7.70;;;;;;;18.59;65.79;100945.72;5004885;28;20499;-77
2021/09/06 06:58:01;;;;;;;10.77;7.78;;;;;;;18.60;65.44;100953.69;5039774;28;20399;-76
2021/09/06 07:00:27;;;;;;;11.67;8.17;;;;;;;18.64;65.30;100953.91;5005518;28;20410;-76
2021/09/06 07:02:52;;;;;;;8.33;7.20;;;;;;;18.63;64.59;100955.03;4997062;28;20413;-76
2021/09/06 07:05:18;;;;;;;11.73;7.47;;;;;;;18.68;64.56;100957.72;5002571;28;20504;-77
2021/09/06 07:07:43;;;;;;;11.70;7.43;;;;;;;18.74;64.59;100953.03;4996520;28;20496;-77
2021/09/06 07:10:09;;;;;;;10.10;7.40;;;;;;;18.79;64.38;100951.06;5007618;28;20525;-76
2021/09/06 07:12:36;;;;;;;8.63;7.47;;;;;;;18.85;64.10;100949.09;4996509;28;20429;-77
2021/09/06 07:15:01;;;;;;;8.48;6.53;;;;;;;18.90;63.63;100957.31;5001560;28;20486;-77
2021/09/06 07:17:26;;;;;;;9.57;7.17;;;;;;;18.94;64.54;100956.41;4998805;28;20492;-77
2021/09/06 07:19:52;;;;;;;10.35;6.95;;;;;;;18.98;64.36;100954.75;4997651;28;20406;-77
2021/09/06 07:22:17;;;;;;;10.40;7.33;;;;;;;19.00;63.86;100963.50;5005641;28;20496;-76
2021/09/06 07:24:42;;;;;;;8.17;6.77;;;;;;;19.04;63.10;100969.25;4996048;28;20414;-76
2021/09/06 07:27:08;;;;;;;7.93;6.57;;;;;;;19.02;63.62;100971.47;5001569;28;20503;-76
2021/09/06 07:29:33;;;;;;;9.30;6.70;;;;;;;19.05;63.53;100960.72;5000127;28;20496;-77
2021/09/06 07:32:00;;;;;;;9.57;6.63;;;;;;;19.12;63.15;100969.44;5000728;28;20419;-76
2021/09/06 07:34:25;;;;;;;10.65;7.10;;;;;;;19.17;63.82;100968.56;4991781;28;20501;-77
2021/09/06 07:36:51;;;;;;;9.20;7.30;;;;;;;19.15;63.12;100979.03;4997086;28;20496;-77
2021/09/06 07:39:16;;;;;;;9.65;7.05;;;;;;;19.19;63.23;100977.34;5006000;28;20397;-76
2021/09/06 07:41:43;;;;;;;7.97;7.00;;;;;;;19.23;63.14;100983.09;5004614;28;20465;-76
2021/09/06 07:44:08;;;;;;;7.85;6.15;;;;;;;19.25;62.89;100984.44;4991964;28;20405;-76
2021/09/06 07:46:34;;;;;;;10.23;6.60;;;;;;;19.24;63.12;100984.72;5002490;28;20402;-76
2021/09/06 07:48:59;;;;;;;7.53;6.80;;;;;;;19.26;63.26;100979.75;5013417;28;20416;-76
2021/09/06 07:51:24;;;;;;;7.27;6.20;;;;;;;19.29;63.65;100981.94;5006298;28;20407;-76
2021/09/06 07:53:50;;;;;;;8.90;6.60;;;;;;;19.31;63.21;100983.28;4999021;28;20403;-76
2021/09/06 07:56:15;;;;;;;8.70;6.13;;;;;;;19.34;63.68;100993.69;5003323;28;20405;-76
2021/09/06 07:58:40;;;;;;;8.90;6.60;;;;;;;19.36;63.85;101001.66;5012325;28;20853;-76
2021/09/06 08:01:05;;;;;;;7.87;7.07;;;;;;;19.34;63.69;101001.94;5005738;28;20406;-76
2021/09/06 08:03:31;;;;;;;9.70;6.67;;;;;;;19.36;63.56;101007.16;5003914;28;20493;-76
2021/09/06 08:05:56;;;;;;;7.47;6.57;;;;;;;19.41;63.99;101007.13;5010887;28;20410;-76
2021/09/06 08:08:21;;;;;;;9.07;7.30;;;;;;;19.47;63.55;101006.78;5001188;28;20422;-76
2021/09/06 08:10:47;;;;;;;9.80;6.80;;;;;;;19.51;64.13;101010.59;5008671;28;20417;-76
2021/09/06 08:13:12;;;;;;;11.57;7.17;;;;;;;19.55;63.59;101014.41;4996393;28;20410;-76
2021/09/06 08:15:37;;;;;;;9.90;6.77;;;;;;;19.59;63.91;101012.69;4994918;28;20414;-76
2021/09/06 08:18:06;;;;;;;8.48;6.93;;;;;;;19.65;63.82;101018.97;5004099;28;20808;-76
2021/09/06 08:20:32;;;;;;;11.13;6.60;;;;;;;19.73;63.01;101014.75;5002905;28;20410;-78
2021/09/06 08:22:57;;;;;;;8.88;6.72;;;;;;;19.82;63.25;101019.34;5011682;28;20780;-78
2021/09/06 08:25:23;;;;;;;16.13;6.83;;;;;;;19.88;63.19;101020.09;4999472;28;20437;-78
2021/09/06 08:27:48;;;;;;;13.68;6.10;;;;;;;19.94;63.22;101021.66;4994928;28;20415;-77
2021/09/06 08:30:14;;;;;;;11.80;7.27;;;;;;;20.03;63.62;101025.38;5009260;28;20428;-77
2021/09/06 08:32:40;;;;;;;10.32;6.35;;;;;;;20.12;63.08;101034.66;5021393;28;20406;-77
2021/09/06 08:35:07;;;;;;;6.65;5.97;;;;;;;20.22;62.67;101037.25;4998711;28;20468;-77
2021/09/06 08:37:32;;;;;;;11.43;6.40;;;;;;;20.28;62.18;101032.56;4995125;28;20422;-79
2021/09/06 08:39:58;;;;;;;7.63;6.03;;;;;;;20.35;62.51;101028.31;5003813;28;20396;-79
2021/09/06 08:42:23;;;;;;;9.73;6.27;;;;;;;20.43;62.22;101030.41;4996190;28;20500;-77
2021/09/06 08:44:48;;;;;;;10.77;6.43;;;;;;;20.51;62.05;101034.44;4997709;28;20415;-79
2021/09/06 08:47:14;;;;;;;9.60;5.93;;;;;;;20.57;61.55;101042.31;5002694;28;20816;-77
2021/09/06 08:49:41;;;;;;;10.10;7.13;;;;;;;20.66;60.65;101032.28;5007082;28;20507;-77
2021/09/06 08:52:06;;;;;;;7.10;6.28;;;;;;;20.80;60.50;101034.28;5001597;28;20398;-77
2021/09/06 08:54:31;;;;;;;9.15;5.72;;;;;;;20.91;60.29;101042.06;5011181;28;20496;-78
2021/09/06 08:56:57;;;;;;;6.23;5.63;;;;;;;21.04;60.29;101029.50;5005920;28;20866;-78
2021/09/06 08:59:22;;;;;;;6.80;6.10;;;;;;;21.21;59.90;101038.84;4996402;28;20407;-77
2021/09/06 09:01:50;;;;;;;5.97;5.43;;;;;;;21.39;59.63;101034.44;5004593;28;20928;-79
2021/09/06 09:04:21;;;;;;;6.80;6.10;;;;;;;21.59;59.21;101038.75;4997203;28;20409;-78
2021/09/06 09:06:54;;;;;;;7.07;5.65;;;;;;;21.83;58.28;101036.66;4996456;28;20530;-79
2021/09/06 09:09:35;;;;;;;11.18;5.95;;;;;;;22.13;56.38;101036.03;5010606;28;20434;-78
2021/09/06 09:12:06;;;;;;;8.50;5.70;;;;;;;22.40;56.01;101034.38;4996017;28;20410;-79
2021/09/06 09:14:34;;;;;;;7.75;5.97;;;;;;;22.55;55.00;101036.81;5000330;28;20404;-81
2021/09/06 09:17:00;;;;;;;6.68;5.57;;;;;;;22.77;54.30;101047.91;5006145;28;20414;-82
2021/09/06 09:19:26;;;;;;;9.85;6.10;;;;;;;23.05;53.40;101040.34;5004354;28;20400;-85
2021/09/06 09:21:59;;;;;;;6.85;5.90;;;;;;;23.66;51.97;101039.63;5010135;28;20744;-85
2021/09/06 09:24:24;;;;;;;13.52;6.05;;;;;;;24.14;51.43;101039.66;4994815;28;20399;-84
2021/09/06 09:26:59;;;;;;;6.83;5.73;;;;;;;25.00;48.95;101032.28;4994033;28;20441;-82
2021/09/06 09:29:26;;;;;;;7.35;5.97;;;;;;;25.07;48.96;101032.63;4998632;28;20422;-83
2021/09/06 09:31:54;;;;;;;8.32;6.10;;;;;;;25.34;47.62;101034.22;4997704;28;20447;-81
2021/09/06 09:34:20;;;;;;;7.32;5.80;;;;;;;25.60;48.09;101029.44;5003856;28;20426;-80
2021/09/06 09:36:46;;;;;;;6.15;5.55;;;;;;;25.97;47.40;101021.44;4993773;28;20394;-82
2021/09/06 09:39:14;;;;;;;8.63;5.55;;;;;;;26.33;46.66;101023.72;5007041;28;20402;-84
2021/09/06 09:41:47;;;;;;;7.47;6.30;;;;;;;26.81;44.89;101021.25;4992659;28;20435;-85
2021/09/06 09:44:16;;;;;;;8.65;5.50;;;;;;;27.43;43.58;101020.34;4995483;28;20408;-84
2021/09/06 09:47:04;;;;;;;8.60;5.43;;;;;;;28.38;41.56;101020.78;4994339;28;20399;-84
2021/09/06 09:49:33;;;;;;;5.72;5.15;;;;;;;28.79;39.87;101022.44;5008547;28;20762;-83
2021/09/06 09:51:58;;;;;;;5.80;5.30;;;;;;;29.13;38.90;101018.25;4999327;28;20409;-82
2021/09/06 09:54:24;;;;;;;6.32;5.50;;;;;;;29.64;37.75;101017.25;4993644;28;20870;-83
2021/09/06 09:56:49;;;;;;;6.10;4.80;;;;;;;30.18;36.09;101011.03;5003467;28;20484;-82
2021/09/06 09:59:17;;;;;;;6.20;5.13;;;;;;;30.86;35.20;101015.00;5009668;28;20878;-82
2021/09/06 10:01:54;;;;;;;6.55;5.40;;;;;;;31.09;34.11;101014.28;4999916;28;20447;-84
2021/09/06 10:04:22;;;;;;;6.38;5.03;;;;;;;31.28;33.69;101015.06;5006581;28;20902;-83
2021/09/06 10:06:49;;;;;;;5.60;4.60;;;;;;;31.77;32.81;101005.97;4995584;28;20440;-83
2021/09/06 10:09:14;;;;;;;5.53;4.78;;;;;;;32.06;32.54;101012.88;5002788;28;20417;-83
2021/09/06 10:11:42;;;;;;;5.40;4.90;;;;;;;32.38;32.43;101008.53;4993082;28;20406;-81
2021/09/06 10:14:11;;;;;;;11.45;5.55;;;;;;;32.70;32.27;101012.59;5004849;28;20443;-83
2021/09/06 10:16:39;;;;;;;5.78;5.03;;;;;;;32.68;32.14;101008.56;5012231;28;20419;-82
2021/09/06 10:19:07;;;;;;;7.38;5.47;;;;;;;33.40;31.15;101006.22;5011252;28;20412;-84
2021/09/06 10:21:44;;;;;;;9.05;5.32;;;;;;;33.99;29.91;101001.56;5001018;28;20475;-81
2021/09/06 10:24:18;;;;;;;5.13;4.82;;;;;;;34.91;28.18;101006.56;4999451;28;20508;-80
2021/09/06 10:26:45;;;;;;;5.28;4.82;;;;;;;36.26;25.24;101004.72;5002213;28;20487;-81
2021/09/06 10:29:18;;;;;;;8.13;5.00;;;;;;;37.54;24.02;101007.06;5006505;28;20580;-83
2021/09/06 10:31:44;;;;;;;5.25;4.85;;;;;;;38.46;22.72;100994.91;5002761;28;20397;-81
2021/09/06 10:34:20;;;;;;;7.10;5.07;;;;;;;39.06;21.65;101000.63;4997906;28;20418;-81
2021/09/06 10:36:58;;;;;;;12.20;5.45;;;;;;;39.80;19.98;101005.19;5024390;28;20391;-82
2021/09/06 10:39:23;;;;;;;9.07;5.37;;;;;;;39.85;20.09;101001.03;5004456;28;20407;-81
2021/09/06 10:41:50;;;;;;;6.40;5.10;;;;;;;39.97;19.93;101003.28;5002952;28;20401;-82
2021/09/06 10:44:20;;;;;;;17.20;5.72;;;;;;;40.02;20.22;100996.28;4998182;28;20453;-82
2021/09/06 10:47:14;;;;;;;6.13;5.53;;;;;;;39.90;19.37;100995.69;4996494;28;20397;-82
2021/09/06 10:49:43;;;;;;;11.90;5.72;;;;;;;39.78;19.28;100996.28;5007845;28;20435;-83
2021/09/06 10:52:11;;;;;;;17.40;5.95;;;;;;;39.90;19.44;100986.38;4996308;28;20401;-80
2021/09/06 10:54:38;;;;;;;5.30;4.80;;;;;;;39.77;18.42;100988.22;4998311;28;20425;-80
2021/09/06 10:57:08;;;;;;;7.83;5.40;;;;;;;39.77;19.37;100980.53;5010518;28;20406;-80
2021/09/06 10:59:34;;;;;;;14.20;5.40;;;;;;;39.67;18.64;100984.31;5005222;28;20405;-80
2021/09/06 11:02:02;;;;;;;7.80;5.15;;;;;;;39.49;18.54;100980.19;4995903;28;20425;-81
2021/09/06 11:04:30;;;;;;;5.30;4.90;;;;;;;39.02;19.28;100980.03;5005979;28;20404;-81
2021/09/06 11:07:06;;;;;;;11.85;5.88;;;;;;;38.91;20.04;100985.84;5003014;28;20749;-81
2021/09/06 11:09:34;;;;;;;7.38;5.57;;;;;;;38.34;20.07;100982.84;4991979;28;20425;-81
2021/09/06 11:12:08;;;;;;;8.32;5.68;;;;;;;37.27;22.73;100985.00;5007363;28;20393;-81
2021/09/06 11:14:40;;;;;;;4.50;4.18;;;;;;;36.26;22.23;100973.69;4992543;28;20490;-80
2021/09/06 11:17:18;;;;;;;4.90;4.40;;;;;;;35.71;20.98;100978.16;5001215;28;20400;-81